Laramie Regional Airport
KLAR : rendu visible

Aérodrome :











RETROUVEZ-NOUS SUR...

 
LOGIN :

S'inscrire | Disclaimer

   EN    FR    IT 

 









Légende :    VFR   VFR Marginal   IFR   IFR Intensif   IFR Très Intensif
Visi : 
Plafond : 
>= 8 km
>= 3000ft
5 à 8 km
1000 à 3000 ft
1500m à 5 km
500 à 1000 ft
800 à 1500m
200 à 500 ft
< 800m
< 200 ft
Symboles :   Orages  Brouillard  Fortes neiges  Fortes précipitations  Vent > 20 kt






- Altitude de l'aérodrome : 7284 ft
- Code IATA : LAR


KLAR - Laramie Regional

DERNIER METAR :
  • 282053Z AUTO 14015G22KT 10SM FEW049 FEW080 21/06 A3031 RMK AO2 PK WND 13026/2034 SLP177 T02110061 58007

METARs EXPIRÉS :
  • 281953Z AUTO 14010G19KT 10SM OVC045 19/07 A3033 RMK AO2 SLP185 T01890067
  • 281853Z AUTO 08014G18KT 10SM BKN050 BKN070 19/06 A3034 RMK AO2 SLP188 T01890061

TAF KLAR
Valide du 28 à 19h jusqu'au 29 à 18h UTC


281916Z 2819/2918 08014KT P6SM BKN050
FM282100 09012KT P6SM VCSH BKN050
FM290000 13009KT P6SM SCT070
FM290600 16011KT P6SM SKC
FIR KZDV / Amérique du Nord



MET'MAP, la Météo Aéronautique d'un coup d'oeil ! - Copyright ORBIFLY Décembre 2007 - Disclaimer

ORBIFLY MET'MAP TEAM :

Programmation & Développement : Alexandra Zaïnal
Sur une idée originale de : Baudouin d'Aumeries
Assistance à la programmation : Marc-Olivier Méhu
Soutien technique & logistique : Manuel Goepfert

Contact : metmap@orbifly.com




SOURCES & CREDITS :

   NOAA       Earth
Advisory